Time;durP1;ratioP1;P1;durP2;ratioP2;P2;SDS_P1;SDS_P2;PMS_P1;PMS_P2;Temp;Humidity;BMP_temperature;BMP_pressure;BME280_temperature;BME280_humidity;BME280_pressure;Samples;Min_cycle;Max_cycle;Signal;HPM_P1;HPM_P2
2020/12/03 00:01:14;;;;;;;86.97;31.75;;;;;;;-1.63;87.35;101293.06;1818097;78;21636;-63
2020/12/03 00:03:49;;;;;;;72.97;28.42;;;;;;;-1.67;87.44;101291.63;1790423;78;21372;-63
2020/12/03 00:06:25;;;;;;;86.50;35.08;;;;;;;-1.69;87.56;101292.44;1817716;78;21162;-63
2020/12/03 00:09:07;;;;;;;80.77;31.35;;;;;;;-1.67;87.68;101297.66;1818441;78;21067;-63
2020/12/03 00:11:42;;;;;;;79.22;32.48;;;;;;;-1.67;87.67;101288.63;1817632;77;21114;-63
2020/12/03 00:14:10;;;;;;;68.50;28.40;;;;;;;-1.70;87.65;101288.55;1819147;78;21076;-64
2020/12/03 00:16:40;;;;;;;;;;;;;;;-1.70;87.67;101292.41;1821629;78;21763;-63
2020/12/03 00:19:10;;;;;;;58.73;23.80;;;;;;;-1.72;87.72;101286.32;1818462;78;20517;-63
2020/12/03 00:21:46;;;;;;;70.20;28.52;;;;;;;-1.75;87.82;101288.78;1818020;78;21578;-63
2020/12/03 00:24:21;;;;;;;54.60;21.82;;;;;;;-1.76;87.88;101290.50;1817902;78;21177;-63
2020/12/03 00:26:51;;;;;;;78.33;32.80;;;;;;;-1.78;87.98;101291.28;1817834;78;21586;-63
2020/12/03 00:29:19;;;;;;;71.57;30.05;;;;;;;-1.75;87.94;101287.10;1818003;78;21150;-63
2020/12/03 00:31:47;;;;;;;72.40;29.35;;;;;;;-1.72;87.96;101286.32;1818078;78;21601;-63
2020/12/03 00:34:16;;;;;;;80.90;33.18;;;;;;;-1.74;87.97;101282.39;1818394;78;21628;-62
2020/12/03 00:36:44;;;;;;;65.08;28.17;;;;;;;-1.71;87.90;101281.60;1817795;78;21672;-62
2020/12/03 00:39:14;;;;;;;68.52;29.02;;;;;;;-1.71;87.89;101279.02;1818141;78;21883;-63
2020/12/03 00:41:52;;;;;;;74.92;32.73;;;;;;;-1.68;87.90;101277.81;1810087;78;21654;-63
2020/12/03 00:44:21;;;;;;;70.37;28.65;;;;;;;-1.67;87.71;101280.87;1773119;80;21139;-62
2020/12/03 00:46:50;;;;;;;74.80;32.45;;;;;;;-1.67;87.73;101273.13;1785623;80;21221;-63
2020/12/03 00:49:19;;;;;;;70.87;31.62;;;;;;;-1.64;87.72;101273.21;1785581;80;21145;-63
2020/12/03 00:51:50;;;;;;;67.03;30.50;;;;;;;-1.64;87.57;101271.92;1785772;80;21150;-63
2020/12/03 00:54:20;;;;;;;62.55;27.17;;;;;;;-1.64;87.43;101274.50;1785060;80;21374;-62
2020/12/03 00:56:50;;;;;;;64.77;26.65;;;;;;;-1.69;87.16;101270.91;1784672;80;21153;-63
2020/12/03 00:59:18;;;;;;;64.15;27.90;;;;;;;-1.74;87.21;101268.19;1799626;79;21099;-62
2020/12/03 01:01:47;;;;;;;65.20;28.12;;;;;;;-1.74;87.30;101264.73;1817058;79;22166;-62
2020/12/03 01:04:16;;;;;;;66.20;28.23;;;;;;;-1.74;87.26;101263.44;1817135;79;21166;-61
2020/12/03 01:06:44;;;;;;;62.33;26.17;;;;;;;-1.76;87.26;101258.22;1816938;78;21374;-62
2020/12/03 01:09:13;;;;;;;79.42;33.10;;;;;;;-1.76;87.25;101252.18;1817376;79;21998;-63
2020/12/03 01:11:42;;;;;;;59.15;23.67;;;;;;;-1.74;87.36;101254.40;1817148;77;21593;-63
2020/12/03 01:14:09;;;;;;;70.40;29.70;;;;;;;-1.75;87.19;101252.62;1817310;79;21159;-63
2020/12/03 01:16:37;;;;;;;58.02;24.80;;;;;;;-1.71;87.21;101258.36;1817085;78;21350;-63
2020/12/03 01:19:05;;;;;;;67.70;28.98;;;;;;;-1.68;87.27;101254.56;1817327;79;21406;-62
2020/12/03 01:21:33;;;;;;;72.00;30.23;;;;;;;-1.65;87.25;101253.39;1817085;79;21126;-62
2020/12/03 01:24:01;;;;;;;64.30;29.25;;;;;;;-1.61;87.09;101251.38;1817187;79;21126;-62
2020/12/03 01:26:29;;;;;;;77.03;31.95;;;;;;;-1.62;86.99;101251.31;1817246;79;21166;-62
2020/12/03 01:28:58;;;;;;;66.17;27.07;;;;;;;-1.65;86.95;101249.52;1817409;78;21629;-63
2020/12/03 01:31:31;;;;;;;57.25;24.72;;;;;;;-1.66;86.98;101257.20;1817419;79;21188;-62
2020/12/03 01:33:57;;;;;;;66.50;27.90;;;;;;;-1.67;86.83;101256.77;1817469;78;21147;-63
2020/12/03 01:36:25;;;;;;;68.95;28.67;;;;;;;-1.69;86.85;101258.00;1816057;79;21083;-62
2020/12/03 01:38:52;;;;;;;55.50;24.15;;;;;;;-1.72;86.67;101257.91;1815217;79;21103;-63
2020/12/03 01:41:20;;;;;;;65.75;27.58;;;;;;;-1.74;86.60;101255.69;1815820;78;21210;-62
2020/12/03 01:43:50;;;;;;;69.05;29.48;;;;;;;-1.75;86.64;101253.92;1815561;79;21383;-61
2020/12/03 01:46:18;;;;;;;69.42;29.12;;;;;;;-1.76;86.72;101243.14;1815621;78;21158;-62
2020/12/03 01:48:58;;;;;;;69.72;28.57;;;;;;;-1.74;86.71;101250.11;1815554;79;21198;-62
2020/12/03 01:51:34;;;;;;;53.10;23.05;;;;;;;-1.73;86.70;101248.39;1810106;79;21636;-62
2020/12/03 01:54:10;;;;;;;63.33;27.95;;;;;;;-1.71;86.82;101244.16;1815784;79;21638;-63
2020/12/03 01:57:06;;;;;;;71.50;27.67;;;;;;;-1.61;86.87;101249.17;1846315;76;23018;-62
2020/12/03 01:59:43;;;;;;;65.55;28.55;;;;;;;-1.66;86.75;101250.75;1816471;79;21589;-62
2020/12/03 02:02:13;;;;;;;63.02;26.05;;;;;;;-1.65;86.75;101248.23;1816671;79;22218;-62
2020/12/03 02:04:41;;;;;;;64.47;28.60;;;;;;;-1.68;86.57;101249.40;1816577;78;21174;-64
2020/12/03 02:07:12;;;;;;;67.25;28.27;;;;;;;-1.71;86.64;101244.16;1816280;79;21162;-62
2020/12/03 02:09:40;;;;;;;63.25;28.52;;;;;;;-1.71;86.73;101246.73;1816305;79;21613;-63
2020/12/03 02:12:09;;;;;;;63.68;25.90;;;;;;;-1.77;86.54;101238.79;1797369;79;21771;-62
2020/12/03 02:14:37;;;;;;;70.60;31.27;;;;;;;-1.77;86.60;101243.95;1784205;80;22220;-64
2020/12/03 02:17:05;;;;;;;70.37;28.23;;;;;;;-1.75;86.63;101248.75;1784270;80;21179;-62
2020/12/03 02:19:34;;;;;;;70.45;28.25;;;;;;;-1.80;86.74;101247.74;1784181;80;21167;-65
2020/12/03 02:22:07;;;;;;;74.95;31.02;;;;;;;-1.80;86.81;101244.73;1784153;80;21185;-62
2020/12/03 02:24:40;;;;;;;62.78;24.67;;;;;;;-1.81;86.77;101243.42;1784249;80;21179;-62
2020/12/03 02:27:10;;;;;;;65.22;27.02;;;;;;;-1.83;86.84;101243.78;1784266;80;21473;-62
2020/12/03 02:29:38;;;;;;;80.30;32.27;;;;;;;-1.85;86.75;101246.31;1784410;80;21169;-64
2020/12/03 02:32:06;;;;;;;72.87;29.67;;;;;;;-1.90;86.79;101246.16;1784235;80;21202;-62
2020/12/03 02:34:34;;;;;;;71.87;30.60;;;;;;;-1.90;86.77;101250.03;1784156;79;21146;-62
2020/12/03 02:37:03;;;;;;;77.60;29.75;;;;;;;-1.88;86.82;101247.94;1784061;80;21578;-62
2020/12/03 02:39:33;;;;;;;87.00;32.65;;;;;;;-1.88;86.77;101245.35;1784079;80;21332;-62
2020/12/03 02:42:02;;;;;;;73.50;30.37;;;;;;;-1.91;86.83;101241.84;1784073;80;21177;-63
2020/12/03 02:44:30;;;;;;;68.67;26.30;;;;;;;-1.89;86.87;101239.29;1784217;80;21095;-62
2020/12/03 02:46:58;;;;;;;61.15;22.40;;;;;;;-1.90;86.67;101238.42;1784188;79;21190;-62
2020/12/03 02:49:26;;;;;;;77.90;32.38;;;;;;;-1.94;86.77;101241.72;1784317;80;21091;-63
2020/12/03 02:51:56;;;;;;;73.22;29.07;;;;;;;-1.94;86.74;101248.18;1784372;79;21182;-63
2020/12/03 02:54:24;;;;;;;68.57;27.90;;;;;;;-1.94;86.92;101249.89;1784270;80;21677;-62
2020/12/03 02:56:52;;;;;;;78.30;32.03;;;;;;;-1.91;87.00;101244.42;1797620;79;21134;-62
2020/12/03 02:59:20;;;;;;;84.40;31.95;;;;;;;-1.90;86.99;101251.33;1798792;79;21828;-63
2020/12/03 03:01:48;;;;;;;79.55;30.37;;;;;;;-1.90;86.70;101253.91;1761165;81;21185;-62
2020/12/03 03:04:17;;;;;;;90.03;34.67;;;;;;;-1.88;86.75;101247.94;1780060;80;21203;-66
2020/12/03 03:06:45;;;;;;;91.32;34.73;;;;;;;-1.88;86.74;101253.10;1760865;81;21175;-64
2020/12/03 03:09:13;;;;;;;82.27;33.18;;;;;;;-1.90;86.79;101247.45;1779025;80;21179;-66
2020/12/03 03:11:42;;;;;;;76.12;29.87;;;;;;;-1.88;86.92;101251.39;1760529;81;21198;-62
2020/12/03 03:14:09;;;;;;;100.50;36.05;;;;;;;-1.85;86.88;101248.02;1779485;80;21656;-62
2020/12/03 03:16:37;;;;;;;78.02;30.85;;;;;;;-1.85;86.87;101248.02;1760608;81;22186;-62
2020/12/03 03:19:05;;;;;;;89.92;36.25;;;;;;;-1.86;86.96;101246.25;1779210;80;21623;-63
2020/12/03 03:21:37;;;;;;;83.30;32.48;;;;;;;-1.83;87.04;101251.53;1760641;81;21578;-63
2020/12/03 03:24:04;;;;;;;75.22;29.98;;;;;;;-1.84;87.00;101244.59;1779508;80;21151;-63
2020/12/03 03:26:32;;;;;;;76.62;30.60;;;;;;;-1.86;87.04;101245.86;1760725;81;21114;-63
2020/12/03 03:29:00;;;;;;;80.20;27.77;;;;;;;-1.86;86.94;101251.41;1779318;80;22234;-61
2020/12/03 03:31:28;;;;;;;91.32;34.83;;;;;;;-1.88;86.99;101247.94;1760631;81;21174;-63
2020/12/03 03:33:56;;;;;;;92.00;33.98;;;;;;;-1.88;87.09;101245.35;1779401;80;21118;-63
2020/12/03 03:36:24;;;;;;;73.40;28.12;;;;;;;-1.87;87.07;101246.67;1760641;81;21541;-63
2020/12/03 03:38:52;;;;;;;83.00;31.73;;;;;;;-1.86;87.10;101243.67;1779144;80;21167;-62
2020/12/03 03:41:20;;;;;;;73.75;29.57;;;;;;;-1.85;86.95;101242.86;1760705;81;21625;-63
2020/12/03 03:43:49;;;;;;;77.35;28.92;;;;;;;-1.87;86.93;101244.51;1779172;80;21163;-63
2020/12/03 03:46:18;;;;;;;69.37;27.80;;;;;;;-1.88;87.02;101242.77;1760582;81;21476;-64
2020/12/03 03:48:47;;;;;;;59.93;25.62;;;;;;;-1.87;86.98;101239.34;1779213;80;21551;-63
2020/12/03 03:51:15;;;;;;;72.97;27.70;;;;;;;-1.87;86.96;101244.51;1760701;81;21263;-63
2020/12/03 03:53:43;;;;;;;76.87;31.42;;;;;;;-1.88;86.98;101244.06;1779308;80;21367;-62
2020/12/03 03:56:11;;;;;;;62.65;25.05;;;;;;;-1.86;87.06;101243.67;1760495;79;21557;-62
2020/12/03 03:58:39;;;;;;;69.15;27.42;;;;;;;-1.90;87.13;101246.16;1778861;80;21187;-62
2020/12/03 04:01:07;;;;;;;72.65;30.08;;;;;;;-1.91;87.10;101241.84;1727928;83;21197;-62
2020/12/03 04:03:35;;;;;;;66.77;25.77;;;;;;;-1.92;87.21;101241.36;1779117;80;21111;-64
2020/12/03 04:06:03;;;;;;;63.90;24.25;;;;;;;-1.97;87.30;101239.06;1760561;81;21627;-64
2020/12/03 04:08:31;;;;;;;68.75;27.37;;;;;;;-1.98;87.43;101238.61;1760599;80;21172;-64
2020/12/03 04:11:00;;;;;;;83.45;33.42;;;;;;;-1.98;87.45;101233.83;1760631;81;21191;-63
2020/12/03 04:13:28;;;;;;;86.67;34.20;;;;;;;-1.97;87.60;101235.19;1760650;81;21640;-64
2020/12/03 04:15:56;;;;;;;75.97;30.17;;;;;;;-1.94;87.60;101231.40;1760531;81;21160;-62
2020/12/03 04:18:27;;;;;;;81.90;32.78;;;;;;;-1.93;87.61;101233.17;1760754;81;21565;-62
2020/12/03 04:21:01;;;;;;;81.22;31.77;;;;;;;-1.93;87.56;101226.72;1760723;81;21656;-64
2020/12/03 04:23:29;;;;;;;79.92;32.70;;;;;;;-1.90;87.59;101225.93;1760752;81;21229;-62
2020/12/03 04:25:57;;;;;;;79.50;30.88;;;;;;;-1.88;87.61;101232.44;1760492;80;21153;-63
2020/12/03 04:28:25;;;;;;;72.78;30.80;;;;;;;-1.85;87.63;101238.98;1760755;81;21600;-64
2020/12/03 04:30:54;;;;;;;77.53;30.05;;;;;;;-1.85;87.52;101233.40;1760676;80;22231;-64
2020/12/03 04:33:22;;;;;;;77.05;29.25;;;;;;;-1.92;87.28;101229.74;1760649;81;21636;-63
2020/12/03 04:35:50;;;;;;;74.47;30.40;;;;;;;-1.94;87.36;101227.52;1760672;81;21170;-63
2020/12/03 04:38:18;;;;;;;64.90;27.45;;;;;;;-1.92;87.54;101231.03;1760755;80;21596;-64
2020/12/03 04:40:50;;;;;;;66.65;26.57;;;;;;;-1.92;87.46;101232.33;1760762;81;21584;-63
2020/12/03 04:43:42;;;;;;;65.37;26.90;;;;;;;-1.93;87.47;101231.88;1760409;81;21363;-63
2020/12/03 04:46:36;;;;;;;78.17;29.72;;;;;;;-1.94;87.48;101236.56;1760510;81;21699;-62
2020/12/03 04:49:23;;;;;;;72.30;30.08;;;;;;;-1.94;87.46;101244.73;1760590;81;21137;-63
2020/12/03 04:52:27;;;;;;;75.25;31.35;;;;;;;-1.94;87.58;101244.31;1760457;81;21192;-62
2020/12/03 04:55:20;;;;;;;69.47;28.27;;;;;;;-1.90;87.70;101241.00;1760570;81;21173;-62
2020/12/03 04:58:00;;;;;;;53.60;23.25;;;;;;;-1.87;87.63;101244.51;1765605;81;22226;-64
2020/12/03 05:00:48;;;;;;;76.30;31.50;;;;;;;-1.92;87.58;101244.36;1756706;81;21637;-63
2020/12/03 05:03:40;;;;;;;62.75;24.52;;;;;;;-1.95;87.64;101245.15;1771000;80;21553;-63
2020/12/03 05:06:42;;;;;;;79.45;32.75;;;;;;;-1.97;87.85;101240.34;1774709;80;21204;-62
2020/12/03 05:09:28;;;;;;;58.98;24.30;;;;;;;-1.94;88.01;101235.69;1774956;80;21650;-63
2020/12/03 05:12:01;;;;;;;70.72;26.40;;;;;;;-1.92;87.97;101241.36;1774789;80;21324;-64
2020/12/03 05:14:42;;;;;;;67.62;30.00;;;;;;;-1.99;87.88;101239.84;1771488;81;21192;-61
2020/12/03 05:17:30;;;;;;;82.90;31.65;;;;;;;-2.04;88.08;101238.41;1771682;81;21165;-61
2020/12/03 05:20:14;;;;;;;60.10;25.77;;;;;;;-2.05;88.18;101239.21;1774573;80;21229;-64
2020/12/03 05:22:42;;;;;;;61.18;26.20;;;;;;;-2.06;88.27;101241.34;1776025;80;21585;-64
2020/12/03 05:25:16;;;;;;;77.20;30.60;;;;;;;-2.01;88.36;101239.78;1787120;80;21402;-64
2020/12/03 05:27:44;;;;;;;75.15;31.85;;;;;;;-1.96;88.51;101235.63;1787086;80;21646;-64
2020/12/03 05:30:12;;;;;;;65.65;25.82;;;;;;;-1.94;88.46;101244.31;1787164;80;21166;-65
2020/12/03 05:32:40;;;;;;;71.70;30.48;;;;;;;-1.91;88.49;101239.65;1779795;80;21126;-64
2020/12/03 05:35:09;;;;;;;67.75;27.05;;;;;;;-1.91;88.42;101240.55;1773164;80;21167;-63
2020/12/03 05:37:38;;;;;;;75.32;28.95;;;;;;;-1.92;88.55;101243.95;1755972;81;21361;-63
2020/12/03 05:40:08;;;;;;;75.17;29.67;;;;;;;-1.90;88.45;101246.16;1758290;80;22246;-64
2020/12/03 05:42:36;;;;;;;55.88;23.22;;;;;;;-1.90;88.41;101248.75;1752350;79;21166;-65
2020/12/03 05:45:14;;;;;;;74.12;29.75;;;;;;;-1.92;88.46;101245.23;1781227;79;21128;-66
2020/12/03 05:47:44;;;;;;;66.37;28.98;;;;;;;-1.90;88.47;101248.75;1782507;78;21162;-64
2020/12/03 05:50:16;;;;;;;76.82;29.37;;;;;;;-1.89;88.40;101250.91;1771213;80;21374;-65
2020/12/03 05:53:07;;;;;;;72.90;29.02;;;;;;;-1.92;88.51;101253.41;1773417;79;21160;-67
2020/12/03 05:55:35;;;;;;;;;;;;;;;-1.90;88.51;101254.33;1780607;79;21194;-65
2020/12/03 05:58:22;;;;;;;78.80;29.63;;;;;;;-1.90;88.56;101256.49;1768743;80;20238;-68
2020/12/03 06:00:50;;;;;;;81.40;33.45;;;;;;;-1.88;88.57;101263.43;1779097;80;21175;-66
2020/12/03 06:03:41;;;;;;;79.30;31.02;;;;;;;-1.86;88.58;101261.73;1779296;80;22152;-67
2020/12/03 06:06:46;;;;;;;79.33;31.67;;;;;;;-1.87;88.55;101269.91;1779293;80;21139;-64
2020/12/03 06:09:45;;;;;;;79.35;30.40;;;;;;;-1.87;88.53;101262.58;1718060;83;21661;-65
2020/12/03 06:12:45;;;;;;;80.83;29.95;;;;;;;-1.87;88.70;101270.33;1779137;80;21217;-65
2020/12/03 06:15:43;;;;;;;87.47;33.80;;;;;;;-1.88;88.68;101268.59;1779192;80;21146;-66
2020/12/03 06:18:41;;;;;;;86.57;33.40;;;;;;;-1.90;88.64;101263.37;1762439;80;22367;-66
2020/12/03 06:21:37;;;;;;;82.82;30.32;;;;;;;-1.92;88.56;101264.59;1670420;84;21237;-65
2020/12/03 06:24:58;;;;;;;86.45;32.65;;;;;;;-1.92;88.56;101263.31;1670056;85;21265;-65
2020/12/03 06:27:37;;;;;;;80.92;28.73;;;;;;;-1.95;88.49;101260.64;1742410;81;21612;-66
2020/12/03 06:30:25;;;;;;;79.00;30.20;;;;;;;-1.96;88.63;101260.16;1748396;81;21182;-64
2020/12/03 06:33:17;;;;;;;86.35;33.28;;;;;;;-1.97;88.69;101267.45;1760732;81;22118;-66
2020/12/03 06:35:59;;;;;;;74.90;30.27;;;;;;;-1.95;88.77;101263.22;1759936;81;21202;-66
2020/12/03 06:38:45;;;;;;;89.85;32.55;;;;;;;-1.97;88.75;101264.00;1750830;81;21221;-65
2020/12/03 06:41:40;;;;;;;80.90;26.80;;;;;;;-1.98;88.65;101261.84;1759389;81;21213;-65
2020/12/03 06:44:16;;;;;;;91.67;35.35;;;;;;;-1.94;88.68;101262.38;1761207;81;21611;-65
2020/12/03 06:46:58;;;;;;;90.57;34.45;;;;;;;-1.98;88.69;101261.84;1760938;81;21336;-67
2020/12/03 06:49:52;;;;;;;99.20;35.70;;;;;;;-1.97;88.86;101258.42;1760895;80;21193;-65
2020/12/03 06:52:47;;;;;;;77.22;26.73;;;;;;;-1.97;88.72;101258.42;1761162;81;21145;-65
2020/12/03 06:55:40;;;;;;;71.47;29.35;;;;;;;-1.95;88.43;101261.93;1761292;81;21653;-66
2020/12/03 06:58:47;;;;;;;80.22;31.07;;;;;;;-1.99;88.17;101261.36;1771029;80;21639;-67
2020/12/03 07:02:00;;;;;;;79.75;33.88;;;;;;;-2.00;88.00;101259.63;1752403;81;22146;-65
2020/12/03 07:05:04;;;;;;;82.30;31.12;;;;;;;-2.04;88.05;101255.18;1752068;81;21198;-66
2020/12/03 07:07:58;;;;;;;74.05;29.48;;;;;;;-2.01;88.16;101261.72;1752606;81;22115;-66
2020/12/03 07:11:05;;;;;;;68.70;26.52;;;;;;;-2.01;88.02;101266.89;1739887;81;21718;-66
2020/12/03 07:14:01;;;;;;;102.30;36.75;;;;;;;-1.98;88.12;101264.81;1770760;80;21151;-68
2020/12/03 07:17:14;;;;;;;90.90;35.20;;;;;;;-1.94;88.18;101263.67;1783318;80;22619;-68
2020/12/03 07:20:27;;;;;;;66.95;24.67;;;;;;;-1.90;88.18;101259.08;1783436;80;21221;-67
2020/12/03 07:23:00;;;;;;;84.20;35.23;;;;;;;-1.87;88.22;101262.58;1783429;80;21308;-66
2020/12/03 07:25:29;;;;;;;85.83;33.45;;;;;;;-1.85;88.04;101260.93;1783493;80;21634;-67
2020/12/03 07:28:26;;;;;;;67.58;28.15;;;;;;;-1.78;87.99;101270.63;1783470;80;21645;-68
2020/12/03 07:30:56;;;;;;;81.50;31.85;;;;;;;-1.81;87.64;101267.95;1783431;80;21689;-67
2020/12/03 07:33:43;;;;;;;;;;;;;;;-1.85;87.41;101272.55;1786169;80;21362;-68
2020/12/03 07:36:36;;;;;;;72.25;28.07;;;;;;;-1.87;87.52;101268.62;1783389;80;20278;-67
2020/12/03 07:39:18;;;;;;;79.10;33.63;;;;;;;-1.86;87.65;101269.48;1783110;80;21619;-65
2020/12/03 07:41:57;;;;;;;;;;;;;;;-1.87;87.69;101267.75;1786206;80;22001;-66
2020/12/03 07:44:41;;;;;;;79.07;31.25;;;;;;;-1.85;87.76;101276.42;1783476;80;21369;-66
2020/12/03 07:47:37;;;;;;;81.02;32.13;;;;;;;-1.86;87.76;101278.14;1783330;80;21214;-67
2020/12/03 07:50:07;;;;;;;79.32;34.58;;;;;;;-1.85;87.83;101268.68;1783517;80;21162;-66
2020/12/03 07:52:37;;;;;;;72.82;30.57;;;;;;;-1.81;87.90;101278.28;1783445;80;21243;-68
2020/12/03 07:55:27;;;;;;;61.15;24.47;;;;;;;-1.78;87.90;101279.66;1783592;80;21150;-66
2020/12/03 07:57:58;;;;;;;69.15;29.07;;;;;;;-1.76;87.90;101279.30;1780759;80;22067;-67
2020/12/03 08:00:49;;;;;;;72.80;30.10;;;;;;;-1.79;87.57;101279.21;1776643;80;21169;-66
2020/12/03 08:03:41;;;;;;;65.65;28.12;;;;;;;-1.77;87.68;101282.69;1751657;80;21173;-68
2020/12/03 08:06:18;;;;;;;71.57;28.47;;;;;;;-1.75;87.71;101282.33;1752615;80;21182;-67
2020/12/03 08:09:07;;;;;;;61.92;26.15;;;;;;;-1.75;87.59;101286.20;1748225;82;21261;-67
2020/12/03 08:12:03;;;;;;;66.37;27.87;;;;;;;-1.78;87.50;101279.66;1748208;82;21759;-67
2020/12/03 08:14:47;;;;;;;79.27;31.73;;;;;;;-1.80;87.56;101277.44;1765781;80;21626;-65
2020/12/03 08:17:27;;;;;;;67.17;27.45;;;;;;;-1.81;87.74;101270.53;1764782;80;21151;-68
2020/12/03 08:20:06;;;;;;;73.40;28.95;;;;;;;-1.74;87.84;101272.05;1772432;80;21625;-67
2020/12/03 08:22:39;;;;;;;55.73;23.62;;;;;;;-1.70;87.63;101264.88;1774399;80;21131;-70
2020/12/03 08:25:26;;;;;;;72.32;29.77;;;;;;;-1.71;87.53;101264.81;1768979;80;21283;-67
2020/12/03 08:28:04;;;;;;;75.57;30.20;;;;;;;-1.74;87.53;101262.15;1777502;80;21198;-65
2020/12/03 08:30:38;;;;;;;73.33;29.70;;;;;;;-1.73;87.54;101256.14;1766034;80;21079;-67
2020/12/03 08:33:08;;;;;;;69.25;28.32;;;;;;;-1.72;87.57;101258.78;1790683;80;21529;-67
2020/12/03 08:35:37;;;;;;;75.90;30.68;;;;;;;-1.74;87.57;101251.81;1780809;80;21150;-67
2020/12/03 08:38:06;;;;;;;73.95;31.52;;;;;;;-1.71;87.58;101254.48;1787722;80;21725;-68
2020/12/03 08:40:37;;;;;;;70.28;29.35;;;;;;;-1.71;87.68;101254.48;1784823;79;21195;-66
2020/12/03 08:43:09;;;;;;;72.37;28.38;;;;;;;-1.71;87.56;101254.48;1747846;82;21210;-67
2020/12/03 08:45:44;;;;;;;70.62;29.40;;;;;;;-1.74;87.52;101256.98;1748230;82;21629;-67
2020/12/03 08:48:06;;;;;;;80.40;30.57;;;;;;;-1.71;87.69;101253.19;1797138;79;21601;-69
2020/12/03 08:50:35;;;;;;;78.57;31.17;;;;;;;-1.69;87.59;101248.53;1804921;79;21239;-67
2020/12/03 08:53:11;;;;;;;76.10;27.27;;;;;;;-1.69;87.61;101241.20;1804820;79;21213;-68
2020/12/03 08:55:40;;;;;;;74.92;28.40;;;;;;;-1.70;87.64;101240.76;1781772;79;22169;-67
2020/12/03 08:58:09;;;;;;;73.33;30.82;;;;;;;-1.66;87.85;101233.54;1754640;81;21241;-67
2020/12/03 09:00:41;;;;;;;69.32;25.68;;;;;;;-1.63;87.61;101236.23;1730399;82;21229;-68
2020/12/03 09:03:15;;;;;;;78.50;30.85;;;;;;;-1.65;87.59;101230.14;1730742;82;21170;-68
2020/12/03 09:05:44;;;;;;;76.85;30.27;;;;;;;-1.63;87.58;101234.95;1783505;80;21155;-68
2020/12/03 09:08:18;;;;;;;69.17;27.40;;;;;;;-1.63;87.58;101226.30;1785087;80;21298;-68
2020/12/03 09:10:48;;;;;;;57.48;23.73;;;;;;;-1.62;87.71;101218.60;1785498;80;21145;-69
2020/12/03 09:13:18;;;;;;;74.40;29.92;;;;;;;-1.56;87.63;101218.80;1785903;80;21185;-69
2020/12/03 09:15:47;;;;;;;79.85;32.73;;;;;;;-1.53;87.59;101213.70;1786378;80;21360;-68
2020/12/03 09:18:15;;;;;;;77.03;31.10;;;;;;;-1.50;87.68;101211.20;1785994;80;21165;-66
2020/12/03 09:20:48;;;;;;;72.53;29.37;;;;;;;-1.52;87.39;101215.48;1786550;80;21541;-67
2020/12/03 09:23:22;;;;;;;135.25;50.92;;;;;;;-1.48;87.41;101221.17;1786414;80;21581;-67
2020/12/03 09:25:50;;;;;;;101.87;49.45;;;;;;;-1.51;87.32;101210.76;1783573;80;21138;-68
2020/12/03 09:28:19;;;;;;;67.27;26.07;;;;;;;-1.51;87.47;101214.63;1783411;80;21892;-68
2020/12/03 09:30:49;;;;;;;64.77;21.90;;;;;;;-1.53;87.52;101205.95;1783364;80;21629;-66
2020/12/03 09:33:20;;;;;;;69.17;28.42;;;;;;;-1.57;87.48;101196.36;1783547;80;21582;-67
2020/12/03 09:35:59;;;;;;;81.92;32.40;;;;;;;-1.59;87.61;101196.72;1783680;80;21372;-68
2020/12/03 09:38:26;;;;;;;79.17;30.10;;;;;;;-1.56;87.85;101199.42;1796397;79;21189;-67
2020/12/03 09:40:54;;;;;;;77.72;32.20;;;;;;;-1.55;87.81;101203.73;1816003;79;21382;-66
2020/12/03 09:43:23;;;;;;;79.50;33.92;;;;;;;-1.54;87.84;101202.93;1815791;79;21585;-66
2020/12/03 09:45:55;;;;;;;62.67;25.00;;;;;;;-1.49;87.92;101200.05;1816225;79;21165;-67
2020/12/03 09:48:24;;;;;;;73.17;30.85;;;;;;;-1.49;87.68;101196.18;1789371;79;21192;-68
2020/12/03 09:50:53;;;;;;;81.75;32.55;;;;;;;-1.57;87.69;101192.48;1763104;79;21130;-67
2020/12/03 09:53:21;;;;;;;53.78;19.60;;;;;;;-1.55;87.98;101190.83;1816294;79;21805;-68
2020/12/03 09:55:49;;;;;;;72.03;30.43;;;;;;;-1.53;87.93;101190.45;1816206;79;22067;-66
2020/12/03 09:58:19;;;;;;;69.22;30.43;;;;;;;-1.53;87.78;101193.04;1814049;79;21166;-67
2020/12/03 10:00:51;;;;;;;74.12;33.25;;;;;;;-1.52;87.92;101194.81;1785839;80;21174;-66
2020/12/03 10:03:58;;;;;;;66.20;27.67;;;;;;;-1.52;87.93;101196.49;1786111;80;21162;-67
2020/12/03 10:06:54;;;;;;;66.90;29.50;;;;;;;-1.46;87.92;101199.69;1775109;80;21923;-67
2020/12/03 10:09:45;;;;;;;61.45;28.73;;;;;;;-1.50;87.42;101190.53;1744552;81;21240;-67
2020/12/03 10:12:46;;;;;;;58.15;24.85;;;;;;;-1.51;87.52;101188.80;1755094;81;21179;-66
2020/12/03 10:15:40;;;;;;;74.47;31.60;;;;;;;-1.48;87.59;101194.05;1771391;80;21569;-69
2020/12/03 10:18:09;;;;;;;78.00;32.95;;;;;;;-1.49;87.44;101192.30;1762516;80;21110;-68
2020/12/03 10:20:37;;;;;;;67.87;30.23;;;;;;;-1.47;87.50;101189.78;1787608;80;21359;-67
2020/12/03 10:23:20;;;;;;;62.00;27.52;;;;;;;-1.48;87.40;101191.45;1787396;80;21107;-66
2020/12/03 10:26:05;;;;;;;67.25;29.05;;;;;;;-1.44;87.36;101192.86;1786625;80;21162;-67
2020/12/03 10:28:46;;;;;;;75.12;31.75;;;;;;;-1.37;87.50;101193.49;1764289;81;21180;-66
2020/12/03 10:31:14;;;;;;;79.65;30.70;;;;;;;-1.31;87.67;101181.63;1787487;80;21597;-68
2020/12/03 10:33:50;;;;;;;75.35;31.85;;;;;;;-1.30;87.14;101177.33;1783853;80;21586;-67
2020/12/03 10:36:41;;;;;;;72.50;27.50;;;;;;;-1.31;87.05;101185.92;1756982;80;21142;-69
2020/12/03 10:39:09;;;;;;;;;;;;;;;-1.37;86.87;101180.58;1787368;80;21170;-67
2020/12/03 10:41:42;;;;;;;63.50;25.23;;;;;;;-1.52;86.90;101168.98;1749177;81;20284;-68
2020/12/03 10:44:15;;;;;;;70.80;28.47;;;;;;;-1.55;87.20;101171.45;1708847;81;21174;-67
2020/12/03 10:46:49;;;;;;;82.00;32.63;;;;;;;-1.56;87.41;101164.55;1757897;80;21258;-68
2020/12/03 10:51:03;;;;;;;69.20;28.23;;;;;;;-1.48;87.61;101171.21;1794069;79;22640;-68
2020/12/03 10:53:32;;;;;;;141.70;59.77;;;;;;;-1.53;87.51;101174.95;1756596;81;21752;-67
2020/12/03 10:56:06;;;;;;;105.17;43.25;;;;;;;-1.55;87.37;101174.03;1756463;81;21366;-66
2020/12/03 10:58:56;;;;;;;87.57;34.03;;;;;;;-1.56;87.40;101168.42;1773837;80;21202;-66
2020/12/03 11:01:27;;;;;;;84.92;34.67;;;;;;;-1.56;87.45;101173.59;1773378;80;21617;-65
2020/12/03 11:03:57;;;;;;;85.80;32.78;;;;;;;-1.52;87.48;101172.84;1768432;80;21171;-64
2020/12/03 11:06:29;;;;;;;75.12;32.80;;;;;;;-1.55;87.57;101171.45;1761604;80;21158;-65
2020/12/03 11:08:58;;;;;;;75.83;31.30;;;;;;;-1.52;87.59;101165.10;1770520;80;21484;-64
2020/12/03 11:11:36;;;;;;;88.85;35.13;;;;;;;-1.52;87.53;101166.39;1775556;80;21271;-64
2020/12/03 11:14:14;;;;;;;70.62;29.65;;;;;;;-1.50;87.68;101156.08;1726054;82;21135;-65
2020/12/03 11:17:16;;;;;;;78.90;33.03;;;;;;;-1.39;87.73;101152.52;1846431;76;22695;-65
2020/12/03 11:19:49;;;;;;;80.53;31.73;;;;;;;-1.40;87.75;101157.20;1811712;79;21578;-66
2020/12/03 11:22:40;;;;;;;78.52;33.40;;;;;;;-1.37;87.53;101170.23;1783118;79;21175;-64
2020/12/03 11:25:12;;;;;;;;;;;;;;;-1.42;87.29;101167.95;1786931;80;21506;-64
2020/12/03 11:27:42;;;;;;;72.35;27.70;;;;;;;-1.51;87.44;101162.96;1784321;80;20286;-65
2020/12/03 11:30:17;;;;;;;89.50;35.48;;;;;;;-1.53;87.62;101155.58;1784361;80;21163;-63
2020/12/03 11:32:53;;;;;;;92.00;37.78;;;;;;;-1.52;87.72;101160.33;1784214;80;21606;-64
2020/12/03 11:35:34;;;;;;;83.50;30.05;;;;;;;-1.55;87.91;101153.36;1784002;79;21052;-64
2020/12/03 11:38:04;;;;;;;82.00;30.80;;;;;;;-1.54;87.97;101157.72;1784073;80;21573;-65
2020/12/03 11:40:56;;;;;;;79.40;25.62;;;;;;;-1.52;88.06;101151.28;1813298;79;21156;-66
2020/12/03 11:51:32;;;;;;;92.37;35.70;;;;;;;-1.38;88.21;101145.20;1840634;78;22746;-67
2020/12/03 11:54:05;;;;;;;97.90;37.35;;;;;;;-1.45;88.13;101151.05;1815873;79;21123;-65
2020/12/03 11:56:37;;;;;;;92.85;31.20;;;;;;;-1.46;88.25;101151.89;1815905;79;21370;-66
2020/12/03 11:59:18;;;;;;;84.80;29.60;;;;;;;-1.48;88.28;101142.37;1812674;79;21220;-66
2020/12/03 12:01:54;;;;;;;96.75;34.67;;;;;;;-1.48;88.46;101139.78;1746619;81;21154;-67